sensor_id;sensor_type;location;lat;lon;timestamp;pressure;altitude;pressure_sealevel;temperature;humidity
4022;BME280;2025;48.260;16.432;2022-11-20T00:00:20;99515.28;;;1.03;100.00
4022;BME280;2025;48.260;16.432;2022-11-20T00:02:48;99513.38;;;0.99;100.00
4022;BME280;2025;48.260;16.432;2022-11-20T00:05:15;99511.06;;;1.05;100.00
4022;BME280;2025;48.260;16.432;2022-11-20T00:07:44;99502.75;;;1.12;100.00
4022;BME280;2025;48.260;16.432;2022-11-20T00:10:11;99490.41;;;1.05;100.00
4022;BME280;2025;48.260;16.432;2022-11-20T00:12:39;99484.31;;;1.03;100.00
4022;BME280;2025;48.260;16.432;2022-11-20T00:15:07;99494.63;;;1.03;100.00
4022;BME280;2025;48.260;16.432;2022-11-20T00:17:34;99488.97;;;1.12;100.00
4022;BME280;2025;48.260;16.432;2022-11-20T00:20:01;99500.59;;;1.02;100.00
4022;BME280;2025;48.260;16.432;2022-11-20T00:22:28;99510.66;;;0.96;100.00
4022;BME280;2025;48.260;16.432;2022-11-20T00:24:56;99510.25;;;1.06;100.00
4022;BME280;2025;48.260;16.432;2022-11-20T00:27:24;99509.69;;;1.13;100.00
4022;BME280;2025;48.260;16.432;2022-11-20T00:29:51;99505.34;;;1.12;100.00
4022;BME280;2025;48.260;16.432;2022-11-20T00:32:18;99507.91;;;1.12;100.00
4022;BME280;2025;48.260;16.432;2022-11-20T00:34:44;99508.53;;;1.07;100.00
4022;BME280;2025;48.260;16.432;2022-11-20T00:37:11;99507.91;;;1.12;100.00
4022;BME280;2025;48.260;16.432;2022-11-20T00:39:38;99503.31;;;1.05;100.00
4022;BME280;2025;48.260;16.432;2022-11-20T00:42:07;99518.88;;;1.07;100.00
4022;BME280;2025;48.260;16.432;2022-11-20T00:44:34;99525.84;;;1.09;100.00
4022;BME280;2025;48.260;16.432;2022-11-20T00:47:01;99532.03;;;1.13;100.00
4022;BME280;2025;48.260;16.432;2022-11-20T00:49:28;99535.22;;;1.07;100.00
4022;BME280;2025;48.260;16.432;2022-11-20T00:51:55;99539.63;;;1.10;100.00
4022;BME280;2025;48.260;16.432;2022-11-20T00:54:21;99547.44;;;1.11;100.00
4022;BME280;2025;48.260;16.432;2022-11-20T00:56:48;99547.19;;;1.05;100.00
4022;BME280;2025;48.260;16.432;2022-11-20T00:59:17;99537.13;;;1.11;100.00
4022;BME280;2025;48.260;16.432;2022-11-20T01:01:44;99545.88;;;1.15;100.00
4022;BME280;2025;48.260;16.432;2022-11-20T01:04:11;99537.69;;;1.04;100.00
4022;BME280;2025;48.260;16.432;2022-11-20T01:06:38;99542.69;;;1.01;100.00
4022;BME280;2025;48.260;16.432;2022-11-20T01:09:09;99543.44;;;0.99;100.00
4022;BME280;2025;48.260;16.432;2022-11-20T01:11:38;99551.53;;;0.87;100.00
4022;BME280;2025;48.260;16.432;2022-11-20T01:14:09;99561.78;;;0.85;100.00
4022;BME280;2025;48.260;16.432;2022-11-20T01:16:39;99557.53;;;0.86;100.00
4022;BME280;2025;48.260;16.432;2022-11-20T01:19:10;99555.13;;;0.90;100.00
4022;BME280;2025;48.260;16.432;2022-11-20T01:21:38;99554.59;;;0.78;100.00
4022;BME280;2025;48.260;16.432;2022-11-20T01:24:08;99562.47;;;0.81;100.00
4022;BME280;2025;48.260;16.432;2022-11-20T01:26:37;99551.41;;;0.84;100.00
4022;BME280;2025;48.260;16.432;2022-11-20T01:29:06;99547.94;;;0.83;100.00
4022;BME280;2025;48.260;16.432;2022-11-20T01:31:35;99548.22;;;0.89;100.00
4022;BME280;2025;48.260;16.432;2022-11-20T01:34:06;99553.44;;;0.91;100.00
4022;BME280;2025;48.260;16.432;2022-11-20T01:36:35;99557.91;;;0.95;100.00
4022;BME280;2025;48.260;16.432;2022-11-20T01:39:05;99551.63;;;0.88;100.00
4022;BME280;2025;48.260;16.432;2022-11-20T01:41:33;99549.03;;;0.88;100.00
4022;BME280;2025;48.260;16.432;2022-11-20T01:44:21;99536.19;;;0.90;100.00
4022;BME280;2025;48.260;16.432;2022-11-20T01:46:54;99535.78;;;1.00;100.00
4022;BME280;2025;48.260;16.432;2022-11-20T01:49:28;99524.88;;;0.86;100.00
4022;BME280;2025;48.260;16.432;2022-11-20T01:52:01;99547.47;;;0.92;100.00
4022;BME280;2025;48.260;16.432;2022-11-20T01:54:34;99530.56;;;0.99;100.00
4022;BME280;2025;48.260;16.432;2022-11-20T01:57:04;99538.22;;;0.97;100.00
4022;BME280;2025;48.260;16.432;2022-11-20T01:59:35;99532.25;;;0.98;100.00
4022;BME280;2025;48.260;16.432;2022-11-20T02:02:06;99545.09;;;0.96;100.00
4022;BME280;2025;48.260;16.432;2022-11-20T02:04:35;99533.75;;;0.93;100.00
4022;BME280;2025;48.260;16.432;2022-11-20T02:07:02;99540.94;;;1.00;100.00
4022;BME280;2025;48.260;16.432;2022-11-20T02:09:31;99545.47;;;1.06;100.00
4022;BME280;2025;48.260;16.432;2022-11-20T02:11:59;99540.88;;;0.99;100.00
4022;BME280;2025;48.260;16.432;2022-11-20T02:14:26;99549.19;;;1.12;100.00
4022;BME280;2025;48.260;16.432;2022-11-20T02:16:54;99550.66;;;1.06;100.00
4022;BME280;2025;48.260;16.432;2022-11-20T02:19:24;99551.25;;;1.00;100.00
4022;BME280;2025;48.260;16.432;2022-11-20T02:21:59;99558.34;;;0.85;100.00
4022;BME280;2025;48.260;16.432;2022-11-20T02:24:30;99557.31;;;1.01;100.00
4022;BME280;2025;48.260;16.432;2022-11-20T02:26:59;99558.91;;;1.18;100.00
4022;BME280;2025;48.260;16.432;2022-11-20T02:29:32;99550.78;;;1.09;100.00
4022;BME280;2025;48.260;16.432;2022-11-20T02:32:01;99554.22;;;1.09;100.00
4022;BME280;2025;48.260;16.432;2022-11-20T02:34:29;99560.75;;;1.01;100.00
4022;BME280;2025;48.260;16.432;2022-11-20T02:36:56;99555.31;;;1.14;100.00
4022;BME280;2025;48.260;16.432;2022-11-20T02:39:25;99551.16;;;1.18;100.00
4022;BME280;2025;48.260;16.432;2022-11-20T02:41:55;99555.56;;;1.20;100.00
4022;BME280;2025;48.260;16.432;2022-11-20T02:44:22;99540.22;;;1.23;100.00
4022;BME280;2025;48.260;16.432;2022-11-20T02:46:49;99535.66;;;0.97;100.00
4022;BME280;2025;48.260;16.432;2022-11-20T02:49:16;99539.19;;;0.99;100.00
4022;BME280;2025;48.260;16.432;2022-11-20T02:51:43;99544.19;;;0.96;100.00
4022;BME280;2025;48.260;16.432;2022-11-20T02:54:10;99542.38;;;0.93;100.00
4022;BME280;2025;48.260;16.432;2022-11-20T02:56:37;99539.66;;;0.90;100.00
4022;BME280;2025;48.260;16.432;2022-11-20T02:59:06;99529.22;;;0.87;100.00
4022;BME280;2025;48.260;16.432;2022-11-20T03:01:33;99530.63;;;1.00;100.00
4022;BME280;2025;48.260;16.432;2022-11-20T03:04:00;99526.78;;;1.11;100.00
4022;BME280;2025;48.260;16.432;2022-11-20T03:06:28;99514.66;;;1.09;100.00
4022;BME280;2025;48.260;16.432;2022-11-20T03:08:55;99516.53;;;1.13;100.00
4022;BME280;2025;48.260;16.432;2022-11-20T03:11:22;99522.53;;;1.12;100.00
4022;BME280;2025;48.260;16.432;2022-11-20T03:13:49;99517.59;;;0.97;100.00
4022;BME280;2025;48.260;16.432;2022-11-20T03:16:19;99499.41;;;0.94;100.00
4022;BME280;2025;48.260;16.432;2022-11-20T03:18:46;99490.34;;;1.04;100.00
4022;BME280;2025;48.260;16.432;2022-11-20T03:21:14;99494.56;;;1.02;100.00
4022;BME280;2025;48.260;16.432;2022-11-20T03:23:41;99490.22;;;1.01;100.00
4022;BME280;2025;48.260;16.432;2022-11-20T03:26:10;99485.81;;;0.98;100.00
4022;BME280;2025;48.260;16.432;2022-11-20T03:28:38;99487.78;;;1.04;100.00
4022;BME280;2025;48.260;16.432;2022-11-20T03:31:09;99489.03;;;1.13;100.00
4022;BME280;2025;48.260;16.432;2022-11-20T03:33:38;99490.03;;;1.17;100.00
4022;BME280;2025;48.260;16.432;2022-11-20T03:36:07;99488.91;;;1.10;100.00
4022;BME280;2025;48.260;16.432;2022-11-20T03:38:35;99485.38;;;1.08;100.00
4022;BME280;2025;48.260;16.432;2022-11-20T03:41:03;99487.09;;;1.08;100.00
4022;BME280;2025;48.260;16.432;2022-11-20T03:43:31;99486.56;;;0.95;100.00
4022;BME280;2025;48.260;16.432;2022-11-20T03:45:58;99503.38;;;1.07;100.00
4022;BME280;2025;48.260;16.432;2022-11-20T03:48:26;99503.56;;;1.11;100.00
4022;BME280;2025;48.260;16.432;2022-11-20T03:51:06;99502.03;;;0.95;100.00
4022;BME280;2025;48.260;16.432;2022-11-20T03:53:33;99506.84;;;1.07;100.00
4022;BME280;2025;48.260;16.432;2022-11-20T03:56:00;99492.38;;;1.11;100.00
4022;BME280;2025;48.260;16.432;2022-11-20T03:58:27;99494.63;;;1.03;100.00
4022;BME280;2025;48.260;16.432;2022-11-20T04:00:54;99481.66;;;1.02;100.00
4022;BME280;2025;48.260;16.432;2022-11-20T04:03:20;99486.59;;;1.16;100.00
4022;BME280;2025;48.260;16.432;2022-11-20T04:05:48;99482.38;;;1.18;100.00
4022;BME280;2025;48.260;16.432;2022-11-20T04:08:16;99485.19;;;1.24;100.00
4022;BME280;2025;48.260;16.432;2022-11-20T04:10:43;99479.09;;;1.22;100.00
4022;BME280;2025;48.260;16.432;2022-11-20T04:13:10;99478.16;;;1.20;100.00
4022;BME280;2025;48.260;16.432;2022-11-20T04:15:37;99477.06;;;0.94;100.00
4022;BME280;2025;48.260;16.432;2022-11-20T04:18:04;99475.38;;;0.95;100.00
4022;BME280;2025;48.260;16.432;2022-11-20T04:20:31;99464.56;;;1.04;100.00
4022;BME280;2025;48.260;16.432;2022-11-20T04:22:58;99455.16;;;1.06;100.00
4022;BME280;2025;48.260;16.432;2022-11-20T04:25:26;99458.63;;;1.06;100.00
4022;BME280;2025;48.260;16.432;2022-11-20T04:27:53;99464.69;;;1.07;100.00
4022;BME280;2025;48.260;16.432;2022-11-20T04:30:21;99457.13;;;1.11;100.00
4022;BME280;2025;48.260;16.432;2022-11-20T04:32:48;99458.00;;;0.91;100.00
4022;BME280;2025;48.260;16.432;2022-11-20T04:35:15;99463.66;;;1.03;100.00
4022;BME280;2025;48.260;16.432;2022-11-20T04:37:42;99443.97;;;1.05;100.00
4022;BME280;2025;48.260;16.432;2022-11-20T04:40:10;99437.75;;;1.00;100.00
4022;BME280;2025;48.260;16.432;2022-11-20T04:42:39;99417.91;;;0.99;100.00
4022;BME280;2025;48.260;16.432;2022-11-20T04:45:07;99413.34;;;0.92;100.00
4022;BME280;2025;48.260;16.432;2022-11-20T04:47:34;99404.66;;;0.90;100.00
4022;BME280;2025;48.260;16.432;2022-11-20T04:50:01;99403.81;;;0.91;100.00
4022;BME280;2025;48.260;16.432;2022-11-20T04:52:28;99409.44;;;0.81;100.00
4022;BME280;2025;48.260;16.432;2022-11-20T04:54:55;99403.56;;;0.85;100.00
4022;BME280;2025;48.260;16.432;2022-11-20T04:57:22;99391.25;;;0.78;100.00
4022;BME280;2025;48.260;16.432;2022-11-20T04:59:51;99405.09;;;0.80;100.00
4022;BME280;2025;48.260;16.432;2022-11-20T05:02:18;99401.50;;;0.76;100.00
4022;BME280;2025;48.260;16.432;2022-11-20T05:04:45;99402.69;;;0.84;100.00
4022;BME280;2025;48.260;16.432;2022-11-20T05:07:13;99401.69;;;0.81;100.00
4022;BME280;2025;48.260;16.432;2022-11-20T05:09:41;99409.56;;;0.84;100.00
4022;BME280;2025;48.260;16.432;2022-11-20T05:12:08;99403.78;;;0.89;100.00
4022;BME280;2025;48.260;16.432;2022-11-20T05:14:35;99402.19;;;0.93;100.00
4022;BME280;2025;48.260;16.432;2022-11-20T05:17:03;99407.84;;;0.84;100.00
4022;BME280;2025;48.260;16.432;2022-11-20T05:19:30;99401.06;;;0.86;100.00
4022;BME280;2025;48.260;16.432;2022-11-20T05:21:57;99410.31;;;0.81;100.00
4022;BME280;2025;48.260;16.432;2022-11-20T05:24:24;99404.34;;;0.82;100.00
4022;BME280;2025;48.260;16.432;2022-11-20T05:26:52;99409.56;;;0.84;100.00
4022;BME280;2025;48.260;16.432;2022-11-20T05:29:18;99408.81;;;0.86;100.00
4022;BME280;2025;48.260;16.432;2022-11-20T05:31:45;99409.44;;;0.81;100.00
4022;BME280;2025;48.260;16.432;2022-11-20T05:34:13;99418.94;;;0.82;100.00
4022;BME280;2025;48.260;16.432;2022-11-20T05:36:40;99412.81;;;0.80;100.00
4022;BME280;2025;48.260;16.432;2022-11-20T05:39:07;99392.63;;;0.90;100.00
4022;BME280;2025;48.260;16.432;2022-11-20T05:41:35;99408.69;;;0.83;100.00
4022;BME280;2025;48.260;16.432;2022-11-20T05:44:02;99411.31;;;0.85;100.00
4022;BME280;2025;48.260;16.432;2022-11-20T05:46:29;99429.13;;;0.79;100.00
4022;BME280;2025;48.260;16.432;2022-11-20T05:48:57;99421.88;;;0.91;100.00
4022;BME280;2025;48.260;16.432;2022-11-20T05:51:27;99429.31;;;0.83;100.00
4022;BME280;2025;48.260;16.432;2022-11-20T05:53:56;99430.06;;;0.81;100.00
4022;BME280;2025;48.260;16.432;2022-11-20T05:56:24;99430.75;;;0.77;100.00
4022;BME280;2025;48.260;16.432;2022-11-20T05:58:51;99432.75;;;0.84;100.00
4022;BME280;2025;48.260;16.432;2022-11-20T06:01:20;99434.34;;;0.80;100.00
4022;BME280;2025;48.260;16.432;2022-11-20T06:03:47;99443.25;;;0.68;100.00
4022;BME280;2025;48.260;16.432;2022-11-20T06:06:16;99443.19;;;0.66;100.00
4022;BME280;2025;48.260;16.432;2022-11-20T06:08:45;99450.44;;;0.75;100.00
4022;BME280;2025;48.260;16.432;2022-11-20T06:11:14;99437.53;;;0.75;100.00
4022;BME280;2025;48.260;16.432;2022-11-20T06:13:41;99438.63;;;0.80;100.00
4022;BME280;2025;48.260;16.432;2022-11-20T06:16:10;99441.63;;;0.70;100.00
4022;BME280;2025;48.260;16.432;2022-11-20T06:18:38;99441.00;;;0.75;100.00
4022;BME280;2025;48.260;16.432;2022-11-20T06:21:07;99433.47;;;0.80;100.00
4022;BME280;2025;48.260;16.432;2022-11-20T06:23:35;99430.06;;;0.81;100.00
4022;BME280;2025;48.260;16.432;2022-11-20T06:26:05;99413.78;;;0.82;100.00
4022;BME280;2025;48.260;16.432;2022-11-20T06:28:32;99425.84;;;0.83;100.00
4022;BME280;2025;48.260;16.432;2022-11-20T06:30:59;99426.22;;;0.92;100.00
4022;BME280;2025;48.260;16.432;2022-11-20T06:33:27;99431.13;;;0.86;100.00
4022;BME280;2025;48.260;16.432;2022-11-20T06:35:56;99437.25;;;0.88;100.00
4022;BME280;2025;48.260;16.432;2022-11-20T06:38:24;99433.72;;;0.86;100.00
4022;BME280;2025;48.260;16.432;2022-11-20T06:40:51;99433.59;;;0.83;100.00
4022;BME280;2025;48.260;16.432;2022-11-20T06:43:20;99442.50;;;0.70;100.00
4022;BME280;2025;48.260;16.432;2022-11-20T06:45:52;99458.56;;;0.84;100.00
4022;BME280;2025;48.260;16.432;2022-11-20T06:48:19;99460.00;;;0.77;100.00
4022;BME280;2025;48.260;16.432;2022-11-20T06:50:46;99465.09;;;0.76;100.00
4022;BME280;2025;48.260;16.432;2022-11-20T06:53:13;99470.56;;;0.83;100.00
4022;BME280;2025;48.260;16.432;2022-11-20T06:55:42;99451.84;;;0.87;100.00
4022;BME280;2025;48.260;16.432;2022-11-20T06:58:09;99455.41;;;0.91;100.00
4022;BME280;2025;48.260;16.432;2022-11-20T07:00:38;99468.56;;;0.97;100.00
4022;BME280;2025;48.260;16.432;2022-11-20T07:03:05;99479.94;;;0.81;100.00
4022;BME280;2025;48.260;16.432;2022-11-20T07:05:34;99487.00;;;0.85;100.00
4022;BME280;2025;48.260;16.432;2022-11-20T07:08:01;99487.44;;;0.96;100.00
4022;BME280;2025;48.260;16.432;2022-11-20T07:10:29;99482.88;;;1.10;100.00
4022;BME280;2025;48.260;16.432;2022-11-20T07:12:56;99489.34;;;1.00;100.00
4022;BME280;2025;48.260;16.432;2022-11-20T07:15:25;99490.41;;;1.05;100.00
4022;BME280;2025;48.260;16.432;2022-11-20T07:17:53;99485.00;;;0.99;100.00
4022;BME280;2025;48.260;16.432;2022-11-20T07:20:20;99490.59;;;0.89;100.00
4022;BME280;2025;48.260;16.432;2022-11-20T07:22:53;99501.03;;;0.92;100.00
4022;BME280;2025;48.260;16.432;2022-11-20T07:25:21;99502.81;;;0.93;100.00
4022;BME280;2025;48.260;16.432;2022-11-20T07:27:48;99497.63;;;0.93;100.00
4022;BME280;2025;48.260;16.432;2022-11-20T07:30:16;99502.13;;;0.97;100.00
4022;BME280;2025;48.260;16.432;2022-11-20T07:32:46;99507.06;;;0.92;100.00
4022;BME280;2025;48.260;16.432;2022-11-20T07:35:15;99507.41;;;1.00;100.00
4022;BME280;2025;48.260;16.432;2022-11-20T07:37:42;99513.00;;;0.90;100.00
4022;BME280;2025;48.260;16.432;2022-11-20T07:40:12;99518.00;;;0.87;100.00
4022;BME280;2025;48.260;16.432;2022-11-20T07:42:39;99520.78;;;0.91;100.00
4022;BME280;2025;48.260;16.432;2022-11-20T07:45:06;99514.19;;;0.98;100.00
4022;BME280;2025;48.260;16.432;2022-11-20T07:47:35;99519.63;;;1.04;100.00
4022;BME280;2025;48.260;16.432;2022-11-20T07:50:03;99531.28;;;1.15;100.00
4022;BME280;2025;48.260;16.432;2022-11-20T07:52:31;99524.47;;;1.17;100.00
4022;BME280;2025;48.260;16.432;2022-11-20T07:54:59;99527.75;;;1.13;100.00
4022;BME280;2025;48.260;16.432;2022-11-20T07:57:26;99523.72;;;1.20;100.00
4022;BME280;2025;48.260;16.432;2022-11-20T07:59:53;99539.75;;;1.13;100.00
4022;BME280;2025;48.260;16.432;2022-11-20T08:02:20;99537.38;;;1.17;100.00
4022;BME280;2025;48.260;16.432;2022-11-20T08:04:48;99532.72;;;1.29;100.00
4022;BME280;2025;48.260;16.432;2022-11-20T08:07:15;99533.28;;;1.22;100.00
4022;BME280;2025;48.260;16.432;2022-11-20T08:09:43;99534.75;;;1.37;100.00
4022;BME280;2025;48.260;16.432;2022-11-20T08:12:17;99539.09;;;1.38;100.00
4022;BME280;2025;48.260;16.432;2022-11-20T08:15:01;99538.41;;;1.42;100.00
4022;BME280;2025;48.260;16.432;2022-11-20T08:17:28;99525.16;;;1.55;100.00
4022;BME280;2025;48.260;16.432;2022-11-20T08:19:55;99524.72;;;1.65;100.00
4022;BME280;2025;48.260;16.432;2022-11-20T08:22:23;99534.31;;;1.47;100.00
4022;BME280;2025;48.260;16.432;2022-11-20T08:24:52;99534.81;;;1.38;100.00
4022;BME280;2025;48.260;16.432;2022-11-20T08:27:19;99537.56;;;1.43;100.00
4022;BME280;2025;48.260;16.432;2022-11-20T08:29:46;99534.16;;;1.65;100.00
4022;BME280;2025;48.260;16.432;2022-11-20T08:32:13;99538.34;;;1.82;100.00
4022;BME280;2025;48.260;16.432;2022-11-20T08:34:40;99542.50;;;1.78;100.00
4022;BME280;2025;48.260;16.432;2022-11-20T08:37:07;99542.88;;;1.87;100.00
4022;BME280;2025;48.260;16.432;2022-11-20T08:39:34;99545.91;;;1.77;100.00
4022;BME280;2025;48.260;16.432;2022-11-20T08:42:06;99540.47;;;1.92;100.00
4022;BME280;2025;48.260;16.432;2022-11-20T08:44:33;99544.56;;;2.09;100.00
4022;BME280;2025;48.260;16.432;2022-11-20T08:47:00;99549.03;;;2.36;100.00
4022;BME280;2025;48.260;16.432;2022-11-20T08:49:27;99539.53;;;2.35;100.00
4022;BME280;2025;48.260;16.432;2022-11-20T08:51:55;99550.50;;;2.07;100.00
4022;BME280;2025;48.260;16.432;2022-11-20T08:54:21;99535.34;;;1.93;100.00
4022;BME280;2025;48.260;16.432;2022-11-20T08:56:49;99547.22;;;1.88;100.00
4022;BME280;2025;48.260;16.432;2022-11-20T08:59:17;99540.63;;;1.74;100.00
4022;BME280;2025;48.260;16.432;2022-11-20T09:01:44;99535.81;;;1.83;100.00
4022;BME280;2025;48.260;16.432;2022-11-20T09:04:11;99534.53;;;1.95;100.00
4022;BME280;2025;48.260;16.432;2022-11-20T09:06:40;99528.63;;;1.76;100.00
4022;BME280;2025;48.260;16.432;2022-11-20T09:09:07;99533.41;;;1.67;100.00
4022;BME280;2025;48.260;16.432;2022-11-20T09:11:34;99530.69;;;1.64;100.00
4022;BME280;2025;48.260;16.432;2022-11-20T09:14:01;99536.19;;;1.72;100.00
4022;BME280;2025;48.260;16.432;2022-11-20T09:16:31;99522.19;;;1.67;100.00
4022;BME280;2025;48.260;16.432;2022-11-20T09:18:58;99518.03;;;1.70;100.00
4022;BME280;2025;48.260;16.432;2022-11-20T09:21:25;99524.22;;;1.74;100.00
4022;BME280;2025;48.260;16.432;2022-11-20T09:23:52;99527.59;;;1.73;100.00
4022;BME280;2025;48.260;16.432;2022-11-20T09:26:19;99530.28;;;1.74;100.00
4022;BME280;2025;48.260;16.432;2022-11-20T09:28:47;99513.56;;;1.87;100.00
4022;BME280;2025;48.260;16.432;2022-11-20T09:31:19;99509.56;;;1.95;100.00
4022;BME280;2025;48.260;16.432;2022-11-20T09:33:49;99519.03;;;1.95;100.00
4022;BME280;2025;48.260;16.432;2022-11-20T09:36:17;99525.34;;;1.80;100.00
4022;BME280;2025;48.260;16.432;2022-11-20T09:38:45;99521.94;;;1.81;100.00
4022;BME280;2025;48.260;16.432;2022-11-20T09:41:29;99515.66;;;1.75;100.00
4022;BME280;2025;48.260;16.432;2022-11-20T09:44:09;99514.47;;;1.46;100.00
4022;BME280;2025;48.260;16.432;2022-11-20T09:46:45;99502.94;;;1.58;100.00
4022;BME280;2025;48.260;16.432;2022-11-20T09:49:26;99504.75;;;1.61;100.00
4022;BME280;2025;48.260;16.432;2022-11-20T09:51:59;99499.13;;;1.71;100.00
4022;BME280;2025;48.260;16.432;2022-11-20T09:54:30;99490.19;;;1.84;100.00
4022;BME280;2025;48.260;16.432;2022-11-20T09:57:00;99490.38;;;1.88;100.00
4022;BME280;2025;48.260;16.432;2022-11-20T09:59:36;99490.66;;;1.96;100.00
4022;BME280;2025;48.260;16.432;2022-11-20T10:02:15;99495.19;;;2.02;100.00
4022;BME280;2025;48.260;16.432;2022-11-20T10:04:49;99492.66;;;1.81;100.00
4022;BME280;2025;48.260;16.432;2022-11-20T10:07:21;99488.59;;;1.87;100.00
4022;BME280;2025;48.260;16.432;2022-11-20T10:09:52;99487.66;;;1.85;100.00
4022;BME280;2025;48.260;16.432;2022-11-20T10:12:27;99479.03;;;2.07;100.00
4022;BME280;2025;48.260;16.432;2022-11-20T10:15:16;99487.97;;;1.93;100.00
4022;BME280;2025;48.260;16.432;2022-11-20T10:18:02;99485.84;;;2.05;100.00
4022;BME280;2025;48.260;16.432;2022-11-20T10:20:42;99489.97;;;2.00;100.00
4022;BME280;2025;48.260;16.432;2022-11-20T10:23:28;99478.50;;;1.93;100.00
4022;BME280;2025;48.260;16.432;2022-11-20T10:26:02;99474.56;;;2.03;100.00
4022;BME280;2025;48.260;16.432;2022-11-20T10:28:39;99475.63;;;2.08;100.00
4022;BME280;2025;48.260;16.432;2022-11-20T10:31:20;99472.81;;;2.02;100.00
4022;BME280;2025;48.260;16.432;2022-11-20T10:33:53;99483.53;;;2.13;100.00
4022;BME280;2025;48.260;16.432;2022-11-20T10:36:25;99480.09;;;2.12;100.00
4022;BME280;2025;48.260;16.432;2022-11-20T10:38:56;99478.06;;;2.28;100.00
4022;BME280;2025;48.260;16.432;2022-11-20T10:41:27;99487.41;;;2.24;100.00
4022;BME280;2025;48.260;16.432;2022-11-20T10:44:03;99484.16;;;2.30;100.00
4022;BME280;2025;48.260;16.432;2022-11-20T10:46:37;99480.38;;;2.20;100.00
4022;BME280;2025;48.260;16.432;2022-11-20T10:49:11;99477.47;;;2.35;100.00
4022;BME280;2025;48.260;16.432;2022-11-20T10:51:52;99482.91;;;2.42;100.00
4022;BME280;2025;48.260;16.432;2022-11-20T10:54:32;99475.53;;;2.29;100.00
4022;BME280;2025;48.260;16.432;2022-11-20T10:57:04;99484.03;;;2.49;100.00
4022;BME280;2025;48.260;16.432;2022-11-20T10:59:51;99459.38;;;2.58;100.00
4022;BME280;2025;48.260;16.432;2022-11-20T11:02:24;99469.31;;;2.72;100.00
4022;BME280;2025;48.260;16.432;2022-11-20T11:04:53;99463.63;;;2.82;100.00
4022;BME280;2025;48.260;16.432;2022-11-20T11:07:24;99471.25;;;3.03;100.00
4022;BME280;2025;48.260;16.432;2022-11-20T11:09:54;99458.75;;;3.16;100.00
4022;BME280;2025;48.260;16.432;2022-11-20T11:12:22;99458.97;;;3.22;100.00
4022;BME280;2025;48.260;16.432;2022-11-20T11:14:51;99452.31;;;3.56;100.00
4022;BME280;2025;48.260;16.432;2022-11-20T11:17:22;99455.41;;;3.46;100.00
4022;BME280;2025;48.260;16.432;2022-11-20T11:20:07;99461.41;;;3.45;100.00
4022;BME280;2025;48.260;16.432;2022-11-20T11:22:45;99461.66;;;3.26;100.00
4022;BME280;2025;48.260;16.432;2022-11-20T11:25:29;99457.44;;;3.54;100.00
4022;BME280;2025;48.260;16.432;2022-11-20T11:28:00;99461.94;;;3.60;100.00
4022;BME280;2025;48.260;16.432;2022-11-20T11:30:29;99459.63;;;3.69;100.00
4022;BME280;2025;48.260;16.432;2022-11-20T11:33:05;99453.13;;;3.82;100.00
4022;BME280;2025;48.260;16.432;2022-11-20T11:35:33;99450.53;;;3.82;100.00
4022;BME280;2025;48.260;16.432;2022-11-20T11:38:12;99442.25;;;3.40;100.00
4022;BME280;2025;48.260;16.432;2022-11-20T11:40:41;99453.88;;;3.51;100.00
4022;BME280;2025;48.260;16.432;2022-11-20T11:43:18;99444.50;;;3.54;100.00
4022;BME280;2025;48.260;16.432;2022-11-20T11:46:23;99444.28;;;3.75;100.00
4022;BME280;2025;48.260;16.432;2022-11-20T11:48:57;99445.34;;;3.82;100.00
4022;BME280;2025;48.260;16.432;2022-11-20T11:51:26;99433.63;;;3.95;100.00
4022;BME280;2025;48.260;16.432;2022-11-20T11:53:58;99435.63;;;4.03;100.00
4022;BME280;2025;48.260;16.432;2022-11-20T11:56:27;99426.44;;;4.14;100.00
4022;BME280;2025;48.260;16.432;2022-11-20T11:58:56;99427.16;;;4.40;100.00
4022;BME280;2025;48.260;16.432;2022-11-20T12:01:29;99423.63;;;4.70;100.00
4022;BME280;2025;48.260;16.432;2022-11-20T12:04:03;99416.69;;;5.74;100.00
4022;BME280;2025;48.260;16.432;2022-11-20T12:06:33;99408.78;;;6.07;100.00
4022;BME280;2025;48.260;16.432;2022-11-20T12:09:04;99415.88;;;7.04;100.00
4022;BME280;2025;48.260;16.432;2022-11-20T12:11:37;99413.59;;;6.76;100.00
4022;BME280;2025;48.260;16.432;2022-11-20T12:14:13;99408.88;;;7.00;100.00
4022;BME280;2025;48.260;16.432;2022-11-20T12:16:41;99404.56;;;8.96;100.00
4022;BME280;2025;48.260;16.432;2022-11-20T12:19:11;99410.34;;;9.61;100.00
4022;BME280;2025;48.260;16.432;2022-11-20T12:21:47;99412.34;;;7.54;100.00
4022;BME280;2025;48.260;16.432;2022-11-20T12:24:36;99418.50;;;7.04;100.00
4022;BME280;2025;48.260;16.432;2022-11-20T12:27:32;99411.63;;;7.64;100.00
4022;BME280;2025;48.260;16.432;2022-11-20T12:30:08;99414.56;;;9.44;100.00
4022;BME280;2025;48.260;16.432;2022-11-20T12:32:54;99412.03;;;9.53;100.00
4022;BME280;2025;48.260;16.432;2022-11-20T12:38:51;99403.66;;;10.14;100.00
4022;BME280;2025;48.260;16.432;2022-11-20T12:41:33;99409.75;;;10.13;100.00
4022;BME280;2025;48.260;16.432;2022-11-20T12:44:34;99407.13;;;10.07;100.00
4022;BME280;2025;48.260;16.432;2022-11-20T12:47:30;99407.06;;;9.99;100.00
4022;BME280;2025;48.260;16.432;2022-11-20T12:50:10;99399.00;;;8.64;100.00
4022;BME280;2025;48.260;16.432;2022-11-20T12:52:47;99393.00;;;9.76;100.00
4022;BME280;2025;48.260;16.432;2022-11-20T12:55:21;99394.47;;;9.37;100.00
4022;BME280;2025;48.260;16.432;2022-11-20T12:57:54;99392.03;;;8.64;100.00
4022;BME280;2025;48.260;16.432;2022-11-20T13:00:24;99386.53;;;9.26;100.00
4022;BME280;2025;48.260;16.432;2022-11-20T13:03:09;99391.06;;;9.47;100.00
4022;BME280;2025;48.260;16.432;2022-11-20T13:05:51;99376.19;;;8.48;100.00
4022;BME280;2025;48.260;16.432;2022-11-20T13:08:25;99371.88;;;7.82;100.00
4022;BME280;2025;48.260;16.432;2022-11-20T13:11:03;99393.75;;;7.31;100.00
4022;BME280;2025;48.260;16.432;2022-11-20T13:13:45;99391.41;;;6.95;100.00
4022;BME280;2025;48.260;16.432;2022-11-20T13:16:24;99387.94;;;6.96;100.00
4022;BME280;2025;48.260;16.432;2022-11-20T13:18:52;99388.06;;;6.55;100.00
4022;BME280;2025;48.260;16.432;2022-11-20T13:21:34;99380.50;;;6.69;100.00
4022;BME280;2025;48.260;16.432;2022-11-20T13:24:04;99380.09;;;6.48;100.00
4022;BME280;2025;48.260;16.432;2022-11-20T13:26:32;99377.31;;;6.38;100.00
4022;BME280;2025;48.260;16.432;2022-11-20T13:29:05;99373.19;;;6.04;100.00